Time;durP1;ratioP1;P1;durP2;ratioP2;P2;SDS_P1;SDS_P2;PMS_P1;PMS_P2;Temp;Humidity;BMP_temperature;BMP_pressure;BME280_temperature;BME280_humidity;BME280_pressure;Samples;Min_cycle;Max_cycle;Signal;HPM_P1;HPM_P2
2023/03/20 00:01:40;;;;;;;11.32;6.50;;;;;;;10.61;78.79;101912.47;5055717;28;20539;-82
2023/03/20 00:04:05;;;;;;;12.15;6.57;;;;;;;10.47;78.41;101885.66;5073569;28;20421;-83
2023/03/20 00:06:31;;;;;;;11.85;6.60;;;;;;;10.62;78.91;101910.72;5072866;28;20485;-82
2023/03/20 00:08:56;;;;;;;17.27;7.30;;;;;;;10.67;78.23;101925.88;5073333;28;20033;-83
2023/03/20 00:11:47;;;;;;;14.55;7.22;;;;;;;10.56;78.71;101895.59;5055222;28;20405;-83
2023/03/20 00:14:15;;;;;;;13.25;6.90;;;;;;;10.57;78.75;101914.97;5055169;28;20081;-82
2023/03/20 00:16:43;;;;;;;14.40;7.82;;;;;;;10.47;78.86;101906.78;5072787;28;20411;-83
2023/03/20 00:19:17;;;;;;;14.93;7.65;;;;;;;10.40;79.32;101898.66;5072813;28;20409;-82
2023/03/20 00:21:46;;;;;;;13.07;6.70;;;;;;;10.39;79.25;101895.13;5064622;28;20040;-83
2023/03/20 00:24:11;;;;;;;15.38;7.90;;;;;;;10.40;79.42;101896.00;5073086;28;20417;-83
2023/03/20 00:26:38;;;;;;;13.40;6.82;;;;;;;10.45;79.46;101899.69;5054902;28;20574;-82
2023/03/20 00:29:05;;;;;;;11.45;7.43;;;;;;;10.24;79.62;101870.88;5038764;28;20024;-83
2023/03/20 00:31:36;;;;;;;10.20;6.30;;;;;;;10.47;79.67;101900.63;5072881;28;20448;-83
2023/03/20 00:34:13;;;;;;;13.93;7.70;;;;;;;10.46;79.77;101889.16;5072965;28;20032;-83
2023/03/20 00:36:39;;;;;;;13.48;8.00;;;;;;;10.37;79.57;101878.34;5076533;28;20036;-83
2023/03/20 00:39:05;;;;;;;14.57;8.25;;;;;;;10.28;79.56;101868.41;5058590;28;20379;-82
2023/03/20 00:41:51;;;;;;;13.52;7.53;;;;;;;10.30;79.64;101880.75;5076610;28;20078;-83
2023/03/20 00:44:29;;;;;;;12.52;7.55;;;;;;;10.23;79.76;101877.88;5076166;28;20043;-82
2023/03/20 00:46:57;;;;;;;12.40;7.30;;;;;;;10.03;80.04;101852.69;5076660;28;20456;-83
2023/03/20 00:49:26;;;;;;;15.48;7.90;;;;;;;10.06;80.27;101870.34;5076538;28;20074;-83
2023/03/20 00:51:52;;;;;;;14.13;7.95;;;;;;;9.96;79.89;101848.94;5076390;28;20028;-83
2023/03/20 00:54:18;;;;;;;15.02;7.75;;;;;;;9.99;80.36;101862.25;5025392;28;20029;-82
2023/03/20 00:57:02;;;;;;;15.15;7.75;;;;;;;10.04;80.18;101870.31;5058452;28;20029;-83
2023/03/20 00:59:33;;;;;;;15.85;7.63;;;;;;;9.85;80.30;101871.50;5076286;28;20081;-83
2023/03/20 01:02:00;;;;;;;15.00;7.00;;;;;;;9.67;79.95;101853.34;5058456;28;20021;-83
2023/03/20 01:04:33;;;;;;;12.70;7.25;;;;;;;9.89;80.22;101893.59;5076223;28;20028;-83
2023/03/20 01:06:58;;;;;;;14.95;7.40;;;;;;;9.84;79.85;101896.09;5075792;28;20044;-83
2023/03/20 01:09:23;;;;;;;16.17;7.60;;;;;;;9.86;80.17;101898.81;5057850;28;20140;-83
2023/03/20 01:11:49;;;;;;;11.60;6.55;;;;;;;9.94;79.85;101921.06;5041314;28;20024;-83
2023/03/20 01:14:15;;;;;;;14.35;7.30;;;;;;;9.90;79.52;101921.81;5075775;28;20037;-83
2023/03/20 01:16:41;;;;;;;14.73;7.88;;;;;;;9.80;79.53;101925.88;5057903;28;20031;-83
2023/03/20 01:19:11;;;;;;;13.10;7.53;;;;;;;9.53;79.70;101895.16;5075959;28;20028;-83
2023/03/20 01:21:37;;;;;;;14.07;8.30;;;;;;;9.41;79.91;101873.63;5076256;28;20108;-83
2023/03/20 01:24:02;;;;;;;15.27;8.00;;;;;;;9.50;80.24;101902.94;5058086;28;20162;-82
2023/03/20 01:26:35;;;;;;;20.02;8.43;;;;;;;9.35;80.49;101883.13;5057890;28;20025;-83
2023/03/20 01:29:02;;;;;;;13.82;7.97;;;;;;;9.41;80.31;101891.22;5075851;28;20115;-82
2023/03/20 01:31:27;;;;;;;16.05;7.68;;;;;;;9.42;80.54;101898.28;5057874;28;20033;-83
2023/03/20 01:33:53;;;;;;;15.60;7.97;;;;;;;9.33;80.44;101882.16;5075792;28;20029;-83
2023/03/20 01:36:21;;;;;;;12.27;7.53;;;;;;;9.46;80.29;101916.94;5057848;28;20027;-82
2023/03/20 01:38:56;;;;;;;15.77;7.95;;;;;;;9.46;79.76;101923.91;5075622;28;20035;-83
2023/03/20 01:41:24;;;;;;;15.55;8.35;;;;;;;9.47;80.06;101909.91;5075256;28;20032;-82
2023/03/20 01:43:50;;;;;;;13.80;7.15;;;;;;;9.44;79.89;101907.16;5075312;28;20024;-83
2023/03/20 01:46:18;;;;;;;14.00;8.00;;;;;;;9.13;79.78;101865.72;5075294;28;20074;-82
2023/03/20 01:48:49;;;;;;;16.17;8.75;;;;;;;9.23;79.96;101899.44;5075440;28;20236;-82
2023/03/20 01:51:16;;;;;;;17.83;8.65;;;;;;;9.22;79.83;101902.91;5075409;28;20108;-83
2023/03/20 01:53:43;;;;;;;17.70;8.98;;;;;;;9.22;79.74;101895.00;5057086;28;20032;-83
2023/03/20 01:56:11;;;;;;;14.32;8.63;;;;;;;9.22;80.00;101906.44;5057325;28;20129;-82
2023/03/20 01:58:40;;;;;;;13.23;8.15;;;;;;;9.10;80.43;101898.13;5057455;28;20471;-83
2023/03/20 02:01:10;;;;;;;14.98;8.23;;;;;;;8.96;80.76;101884.50;5074900;28;20032;-83
2023/03/20 02:03:37;;;;;;;17.98;8.55;;;;;;;9.04;80.72;101908.47;5044841;28;20126;-82
2023/03/20 02:06:03;;;;;;;16.38;9.05;;;;;;;9.06;80.65;101897.97;5055092;28;20035;-83
2023/03/20 02:08:30;;;;;;;18.42;8.73;;;;;;;9.05;80.29;101899.72;5037244;28;20123;-82
2023/03/20 02:10:59;;;;;;;17.95;8.98;;;;;;;9.00;80.35;101890.75;5054936;28;20021;-83
2023/03/20 02:13:30;;;;;;;15.55;9.00;;;;;;;8.95;80.43;101860.69;5036961;28;20025;-83
2023/03/20 02:16:03;;;;;;;16.48;9.07;;;;;;;9.03;80.40;101898.75;5054703;28;20031;-83
2023/03/20 02:18:30;;;;;;;16.13;9.68;;;;;;;9.00;79.95;101901.31;5036963;28;20427;-82
2023/03/20 02:21:32;;;;;;;19.42;8.75;;;;;;;9.07;80.31;101913.84;5036963;28;20048;-83
2023/03/20 02:24:22;;;;;;;16.27;9.82;;;;;;;9.07;80.09;101918.22;5055171;28;20040;-83
2023/03/20 02:27:05;;;;;;;19.70;10.00;;;;;;;9.06;79.96;101922.59;5054703;28;20032;-82
2023/03/20 02:29:44;;;;;;;18.70;10.70;;;;;;;9.13;79.85;101929.88;5036858;28;20036;-82
2023/03/20 02:32:31;;;;;;;18.90;10.23;;;;;;;9.13;79.97;101929.88;5036692;28;20033;-83
2023/03/20 02:35:05;;;;;;;22.25;10.88;;;;;;;9.14;80.19;101921.13;5054449;28;20032;-83
2023/03/20 02:38:00;;;;;;;18.20;10.20;;;;;;;9.07;80.42;101915.56;5054532;28;20021;-83
2023/03/20 02:40:46;;;;;;;19.13;10.35;;;;;;;8.91;80.31;101911.53;5054109;28;20017;-83
2023/03/20 02:43:24;;;;;;;20.45;11.20;;;;;;;8.85;81.17;101903.41;5054421;28;20025;-83
2023/03/20 02:46:02;;;;;;;20.70;11.27;;;;;;;8.72;81.12;101881.00;5054267;28;20064;-84
2023/03/20 02:48:56;;;;;;;23.02;10.70;;;;;;;8.80;81.53;101907.63;5053038;28;20028;-83
2023/03/20 02:51:24;;;;;;;17.92;9.93;;;;;;;8.73;81.76;101894.22;5054113;28;20025;-83
2023/03/20 02:54:17;;;;;;;20.30;11.05;;;;;;;8.62;82.38;101889.44;5036265;28;20029;-83
2023/03/20 02:56:56;;;;;;;25.30;11.88;;;;;;;8.44;82.94;101894.94;5052465;28;20025;-81
2023/03/20 02:59:27;;;;;;;21.38;11.13;;;;;;;8.38;83.59;101889.44;5053807;28;20175;-82
2023/03/20 03:01:59;;;;;;;22.63;10.68;;;;;;;8.31;83.80;101883.03;5053823;28;20473;-83
2023/03/20 03:04:33;;;;;;;17.63;10.80;;;;;;;8.26;84.13;101881.94;5054062;28;20120;-83
2023/03/20 03:07:02;;;;;;;21.48;10.68;;;;;;;8.08;84.07;101866.38;5053806;28;20127;-82
2023/03/20 03:09:57;;;;;;;19.85;11.00;;;;;;;8.22;84.69;101877.41;5053869;28;20021;-83
2023/03/20 03:12:28;;;;;;;22.92;10.57;;;;;;;8.09;84.96;101875.16;5043809;28;20028;-82
2023/03/20 03:14:59;;;;;;;18.67;10.27;;;;;;;8.12;84.77;101880.53;5053392;28;20071;-82
2023/03/20 03:17:30;;;;;;;20.83;11.00;;;;;;;7.94;85.01;101855.34;5053756;28;20033;-82
2023/03/20 03:20:00;;;;;;;21.98;10.95;;;;;;;7.91;85.78;101851.69;5035984;28;20029;-82
2023/03/20 03:22:25;;;;;;;20.70;10.55;;;;;;;7.96;84.83;101851.00;5053751;28;20025;-82
2023/03/20 03:24:53;;;;;;;20.40;11.95;;;;;;;7.94;85.80;101850.06;5053875;28;20032;-82
2023/03/20 03:27:30;;;;;;;18.73;10.43;;;;;;;8.00;86.16;101852.03;5035732;28;20031;-82
2023/03/20 03:30:00;;;;;;;21.25;11.15;;;;;;;7.85;86.12;101830.41;5053712;28;20032;-82
2023/03/20 03:33:04;;;;;;;20.70;10.85;;;;;;;7.97;85.75;101842.31;5053538;28;20021;-82
2023/03/20 03:35:30;;;;;;;22.45;10.65;;;;;;;7.96;85.87;101858.91;5053569;28;20029;-81
2023/03/20 03:38:13;;;;;;;19.45;9.57;;;;;;;7.91;86.35;101849.94;5053811;28;20040;-82
2023/03/20 03:41:03;;;;;;;17.63;9.98;;;;;;;7.95;85.90;101856.22;5053624;28;20472;-82
2023/03/20 03:43:40;;;;;;;19.95;9.80;;;;;;;7.98;85.73;101854.63;5036048;28;20119;-82
2023/03/20 03:46:32;;;;;;;18.17;9.85;;;;;;;7.99;85.73;101844.97;5053525;28;20029;-82
2023/03/20 03:48:59;;;;;;;18.02;10.60;;;;;;;7.91;86.32;101849.94;5053467;28;20457;-82
2023/03/20 03:51:30;;;;;;;20.17;10.13;;;;;;;7.71;86.44;101838.69;5052850;28;20446;-83
2023/03/20 03:54:00;;;;;;;19.90;10.65;;;;;;;7.70;86.60;101841.25;5035565;28;20021;-82
2023/03/20 03:56:30;;;;;;;17.58;9.73;;;;;;;7.62;87.37;101835.66;5053208;28;20024;-82
2023/03/20 03:59:00;;;;;;;19.25;9.57;;;;;;;7.51;87.10;101815.97;5053210;28;20036;-82
2023/03/20 04:01:27;;;;;;;17.92;9.85;;;;;;;7.51;87.50;101822.13;5053241;28;20029;-83
2023/03/20 04:03:59;;;;;;;20.85;10.48;;;;;;;7.48;87.31;101829.88;5053249;28;20036;-83
2023/03/20 04:06:26;;;;;;;23.83;9.82;;;;;;;7.66;87.26;101842.84;5053000;28;20025;-83
2023/03/20 04:08:52;;;;;;;18.08;10.25;;;;;;;7.62;87.33;101829.53;5052016;28;20154;-83
2023/03/20 04:11:21;;;;;;;17.05;9.25;;;;;;;7.74;86.44;101840.53;5055173;28;20108;-83
2023/03/20 04:13:48;;;;;;;19.80;10.15;;;;;;;7.69;86.83;101837.72;5055822;28;20021;-82
2023/03/20 04:16:15;;;;;;;17.27;9.27;;;;;;;7.70;86.70;101838.59;5055301;28;20097;-83
2023/03/20 04:18:41;;;;;;;15.20;9.40;;;;;;;7.60;86.69;101834.72;5055729;28;20082;-82
2023/03/20 04:21:07;;;;;;;18.45;9.48;;;;;;;7.69;86.72;101835.09;5055674;28;20025;-83
2023/03/20 04:23:33;;;;;;;19.35;10.07;;;;;;;7.58;86.26;101810.13;5037735;28;20040;-83
2023/03/20 04:25:58;;;;;;;19.38;9.77;;;;;;;7.58;86.98;101819.72;5037531;28;20029;-83
2023/03/20 04:28:24;;;;;;;17.08;9.48;;;;;;;7.38;87.25;101805.81;5037756;28;20027;-83
2023/03/20 04:30:55;;;;;;;19.25;10.02;;;;;;;7.52;86.91;101839.69;5055540;28;20029;-83
2023/03/20 04:33:20;;;;;;;17.27;9.35;;;;;;;7.54;87.09;101834.50;5055501;28;20040;-83
2023/03/20 04:35:46;;;;;;;20.73;9.60;;;;;;;7.56;86.57;101824.94;5037541;28;20359;-82
2023/03/20 04:38:12;;;;;;;16.23;10.00;;;;;;;7.57;86.73;101821.47;5037719;28;20035;-82
2023/03/20 04:40:37;;;;;;;20.50;9.85;;;;;;;7.54;86.03;101826.63;5055310;28;20298;-83
2023/03/20 04:43:03;;;;;;;19.63;9.32;;;;;;;7.43;86.35;101820.03;5037855;28;20033;-83
2023/03/20 04:45:28;;;;;;;18.40;9.68;;;;;;;7.36;86.86;101807.47;5037419;28;20113;-82
2023/03/20 04:47:54;;;;;;;18.17;9.75;;;;;;;7.32;86.41;101802.94;5037459;28;20124;-83
2023/03/20 04:50:19;;;;;;;17.85;9.68;;;;;;;7.42;87.38;101815.63;5055306;28;20356;-83
2023/03/20 04:52:45;;;;;;;18.50;9.93;;;;;;;7.39;86.49;101808.50;5037542;28;20413;-82
2023/03/20 04:55:10;;;;;;;18.35;9.65;;;;;;;7.33;87.55;101805.66;5037214;28;20033;-82
2023/03/20 04:57:36;;;;;;;20.10;10.48;;;;;;;7.22;87.73;101793.78;5055145;28;20033;-82
2023/03/20 05:00:03;;;;;;;25.25;10.50;;;;;;;7.21;87.94;101800.78;5037378;28;20033;-83
2023/03/20 05:02:29;;;;;;;18.92;10.00;;;;;;;7.24;87.62;101813.16;5037062;28;20338;-83
2023/03/20 05:04:54;;;;;;;20.55;9.68;;;;;;;7.26;87.80;101820.25;5055017;28;20077;-82
2023/03/20 05:07:20;;;;;;;17.30;9.32;;;;;;;7.30;87.54;101825.66;5015954;28;1105861;-83
2023/03/20 05:09:45;;;;;;;20.38;9.88;;;;;;;7.27;87.70;101829.94;5038266;28;20079;-82
2023/03/20 05:12:11;;;;;;;16.13;9.48;;;;;;;7.28;88.08;101837.00;5055663;28;20028;-81
2023/03/20 05:14:37;;;;;;;17.42;9.50;;;;;;;7.14;87.86;101790.84;5056138;28;20037;-82
2023/03/20 05:17:02;;;;;;;19.65;10.00;;;;;;;7.24;87.78;101807.91;5021682;28;20369;-82
2023/03/20 05:19:28;;;;;;;17.45;10.05;;;;;;;7.05;88.54;101790.50;5038189;28;20469;-82
2023/03/20 05:21:53;;;;;;;19.98;10.00;;;;;;;7.12;88.39;101818.81;5021277;28;20029;-82
2023/03/20 05:24:21;;;;;;;19.23;9.73;;;;;;;6.93;89.79;101787.38;5038026;28;20481;-83
2023/03/20 05:26:47;;;;;;;16.55;9.63;;;;;;;6.94;89.32;101781.31;5021655;28;20346;-82
2023/03/20 05:29:13;;;;;;;19.00;9.90;;;;;;;6.99;88.61;101800.78;5055713;28;20036;-82
2023/03/20 05:31:38;;;;;;;22.02;9.82;;;;;;;7.06;89.27;101812.41;5055982;28;20059;-82
2023/03/20 05:34:04;;;;;;;17.10;9.23;;;;;;;6.91;90.18;101789.06;5037829;28;20024;-82
2023/03/20 05:36:30;;;;;;;17.13;8.88;;;;;;;7.01;89.23;101806.97;5037654;28;20029;-82
2023/03/20 05:38:55;;;;;;;15.60;9.20;;;;;;;7.05;89.26;101810.63;5036979;28;20079;-82
2023/03/20 05:41:21;;;;;;;18.67;8.50;;;;;;;6.87;90.28;101785.41;5054921;28;20032;-83
2023/03/20 05:43:46;;;;;;;19.95;9.55;;;;;;;7.00;89.98;101805.19;5054887;28;20423;-82
2023/03/20 05:46:12;;;;;;;17.45;8.32;;;;;;;7.02;91.01;101809.69;5054769;28;20031;-82
2023/03/20 05:48:37;;;;;;;19.27;8.82;;;;;;;7.00;90.33;101807.81;5055069;28;20461;-82
2023/03/20 05:51:03;;;;;;;17.08;8.75;;;;;;;7.08;90.41;101818.63;5054643;28;20143;-82
2023/03/20 05:53:29;;;;;;;18.52;8.50;;;;;;;7.10;90.42;101816.94;5004077;28;20032;-82
2023/03/20 05:55:54;;;;;;;14.90;8.48;;;;;;;7.10;89.86;101811.69;5054225;28;20037;-83
2023/03/20 05:58:19;;;;;;;15.00;7.55;;;;;;;7.02;89.79;101795.63;5054904;28;20361;-83
2023/03/20 06:00:45;;;;;;;15.57;7.95;;;;;;;7.23;89.60;101849.03;5020024;28;20086;-83
2023/03/20 06:03:11;;;;;;;15.65;7.65;;;;;;;7.00;89.05;101789.41;5036793;28;20115;-82
2023/03/20 06:05:37;;;;;;;15.77;7.85;;;;;;;7.25;88.94;101831.63;5036181;28;20035;-82
2023/03/20 06:08:03;;;;;;;19.88;8.13;;;;;;;7.16;88.63;101815.50;5036208;28;20091;-82
2023/03/20 06:10:29;;;;;;;18.85;8.25;;;;;;;7.30;89.27;101844.06;5019957;28;20032;-83
2023/03/20 06:12:56;;;;;;;20.08;8.45;;;;;;;7.28;88.85;101838.75;5054332;28;20037;-82
2023/03/20 06:15:22;;;;;;;18.75;7.63;;;;;;;7.27;89.72;101850.97;5055712;28;20036;-82
2023/03/20 06:17:47;;;;;;;15.05;7.70;;;;;;;7.04;89.24;101828.13;5054747;28;20033;-83
2023/03/20 06:20:13;;;;;;;17.20;8.52;;;;;;;7.15;89.17;101849.56;5036575;28;20036;-83
2023/03/20 06:22:38;;;;;;;17.33;7.55;;;;;;;7.03;89.60;101829.88;5036150;28;20052;-82
2023/03/20 06:25:05;;;;;;;15.63;7.65;;;;;;;7.18;90.01;101854.97;5036669;28;20183;-84
2023/03/20 06:27:31;;;;;;;17.10;8.23;;;;;;;7.17;89.70;101845.28;5053955;28;20380;-82
2023/03/20 06:29:56;;;;;;;15.75;7.63;;;;;;;7.15;89.67;101845.25;5054327;28;20025;-83
2023/03/20 06:32:22;;;;;;;17.50;7.88;;;;;;;7.18;89.87;101850.59;5019019;28;20457;-83
2023/03/20 06:34:47;;;;;;;15.57;7.50;;;;;;;7.17;89.72;101840.03;5019796;28;20036;-83
2023/03/20 06:37:13;;;;;;;14.95;7.20;;;;;;;7.26;89.13;101846.56;5036315;28;20110;-84
2023/03/20 06:39:39;;;;;;;16.13;7.65;;;;;;;7.36;89.20;101862.69;5054068;28;20256;-84
2023/03/20 06:42:05;;;;;;;16.65;7.70;;;;;;;7.32;87.78;101850.25;5036120;28;20041;-84
2023/03/20 06:44:30;;;;;;;14.98;7.30;;;;;;;7.41;89.19;101863.75;5053600;28;20025;-84
2023/03/20 06:46:55;;;;;;;14.07;7.40;;;;;;;7.37;88.57;101867.13;5053880;28;20083;-83
2023/03/20 06:49:21;;;;;;;15.80;7.60;;;;;;;7.34;88.98;101859.13;5053913;28;20028;-84
2023/03/20 06:51:47;;;;;;;17.50;8.02;;;;;;;7.43;88.81;101883.16;5035824;28;20025;-83
2023/03/20 06:54:12;;;;;;;16.95;8.40;;;;;;;7.43;87.86;101885.78;5019255;28;20393;-83
2023/03/20 06:56:38;;;;;;;16.08;7.88;;;;;;;7.39;88.82;101881.22;5035572;28;20035;-83
2023/03/20 06:59:03;;;;;;;14.32;7.68;;;;;;;7.42;89.07;101877.00;5054002;28;20373;-83
2023/03/20 07:01:29;;;;;;;18.33;7.35;;;;;;;7.55;88.65;101895.91;5035677;28;20025;-83
2023/03/20 07:03:54;;;;;;;19.40;7.25;;;;;;;7.44;88.56;101888.44;5035793;28;20130;-84
2023/03/20 07:06:20;;;;;;;15.40;7.50;;;;;;;7.57;88.37;101900.38;5035632;28;20061;-84
2023/03/20 07:08:46;;;;;;;16.35;7.35;;;;;;;7.27;87.96;101850.06;5015932;28;20037;-83
2023/03/20 07:11:11;;;;;;;18.42;7.82;;;;;;;7.51;88.58;101894.88;5033376;28;20053;-83
2023/03/20 07:13:37;;;;;;;18.95;7.80;;;;;;;7.45;88.90;101897.22;4999314;28;20071;-83
2023/03/20 07:16:03;;;;;;;14.05;7.75;;;;;;;7.45;88.20;101900.78;4998999;28;20025;-83
2023/03/20 07:18:29;;;;;;;15.27;7.45;;;;;;;7.48;88.36;101906.16;5033238;28;20030;-83
2023/03/20 07:21:00;;;;;;;16.02;7.35;;;;;;;7.42;88.77;101892.78;5015644;28;20543;-83
2023/03/20 07:23:26;;;;;;;22.17;7.60;;;;;;;7.56;88.30;101910.84;5015439;28;20056;-83
2023/03/20 07:25:51;;;;;;;18.60;8.30;;;;;;;7.60;88.20;101907.50;5032907;28;20276;-83
2023/03/20 07:28:17;;;;;;;17.27;7.47;;;;;;;7.66;87.82;101900.72;5015595;28;20025;-82
2023/03/20 07:30:42;;;;;;;13.60;7.13;;;;;;;7.68;87.96;101912.22;4999247;28;20036;-83
2023/03/20 07:33:07;;;;;;;19.27;7.70;;;;;;;7.70;87.77;101904.38;4998916;28;20120;-82
2023/03/20 07:35:33;;;;;;;16.83;7.32;;;;;;;7.71;87.29;101895.66;5033430;28;20028;-83
2023/03/20 07:37:58;;;;;;;15.82;7.47;;;;;;;7.74;87.53;101896.66;5015317;28;20036;-83
2023/03/20 07:40:24;;;;;;;22.17;7.68;;;;;;;7.82;87.14;101912.75;5015581;28;20650;-83
2023/03/20 07:42:51;;;;;;;17.50;7.82;;;;;;;7.78;86.90;101908.22;4999004;28;20044;-83
2023/03/20 07:45:17;;;;;;;19.50;7.60;;;;;;;7.70;86.55;101897.38;5032751;28;20060;-83
2023/03/20 07:47:44;;;;;;;16.90;7.18;;;;;;;7.89;86.26;101909.53;5033346;28;20339;-83
2023/03/20 07:50:10;;;;;;;16.30;7.65;;;;;;;7.92;86.91;101907.03;5032695;28;20501;-83
2023/03/20 07:52:36;;;;;;;14.57;7.25;;;;;;;7.91;86.09;101897.31;5033170;28;20028;-83
2023/03/20 07:55:01;;;;;;;19.50;7.18;;;;;;;8.03;85.80;101915.31;5015144;28;20124;-83
2023/03/20 07:57:26;;;;;;;13.68;6.68;;;;;;;8.05;84.95;101908.41;5032527;28;20405;-83
2023/03/20 07:59:52;;;;;;;20.10;8.05;;;;;;;7.83;85.36;101876.81;5014980;28;20124;-84
2023/03/20 08:02:17;;;;;;;15.95;7.32;;;;;;;7.94;84.98;101901.81;5015318;28;20080;-84
2023/03/20 08:04:44;;;;;;;21.30;7.88;;;;;;;7.77;84.67;101894.16;5032421;28;20403;-82
2023/03/20 08:07:10;;;;;;;16.50;6.95;;;;;;;7.87;85.00;101903.28;5039202;28;20419;-82
2023/03/20 08:09:36;;;;;;;15.48;7.15;;;;;;;7.78;84.56;101888.06;5052555;28;20545;-83
2023/03/20 08:12:02;;;;;;;17.60;6.57;;;;;;;7.88;84.84;101899.84;5052429;28;20025;-83
2023/03/20 08:14:27;;;;;;;18.55;7.18;;;;;;;7.85;84.08;101894.47;5034571;28;20048;-83
2023/03/20 08:16:53;;;;;;;13.45;6.85;;;;;;;7.94;84.12;101917.59;5034472;28;20025;-83
2023/03/20 08:19:18;;;;;;;12.82;6.60;;;;;;;7.95;84.42;101909.75;5034856;28;20029;-83
2023/03/20 08:21:44;;;;;;;16.42;7.00;;;;;;;7.90;84.28;101902.53;5033971;28;20199;-84
2023/03/20 08:24:10;;;;;;;20.13;6.95;;;;;;;7.73;84.62;101879.09;5034931;28;20033;-84
2023/03/20 08:26:35;;;;;;;15.52;7.00;;;;;;;7.92;84.62;101914.00;5052286;28;20028;-82
2023/03/20 08:29:00;;;;;;;21.25;8.07;;;;;;;7.81;84.41;101889.91;5052468;28;20029;-82
2023/03/20 08:31:26;;;;;;;18.73;7.00;;;;;;;7.95;84.27;101903.59;5052138;28;20372;-82
2023/03/20 08:33:51;;;;;;;15.18;6.47;;;;;;;7.94;84.44;101904.44;5052259;28;20035;-82
2023/03/20 08:36:20;;;;;;;15.50;6.43;;;;;;;7.91;83.64;101896.41;5034499;28;20376;-83
2023/03/20 08:38:49;;;;;;;17.30;6.75;;;;;;;7.97;83.90;101912.47;5034546;28;20035;-83
2023/03/20 08:41:18;;;;;;;17.20;6.97;;;;;;;7.99;84.03;101910.78;5034609;28;20116;-84
2023/03/20 08:43:44;;;;;;;14.60;6.22;;;;;;;7.90;84.21;101889.38;5018100;28;20053;-82
2023/03/20 08:46:09;;;;;;;15.68;6.32;;;;;;;8.08;83.45;101912.84;5051881;28;20076;-81
2023/03/20 08:48:35;;;;;;;20.73;6.40;;;;;;;7.90;83.59;101886.75;5051977;28;20376;-81
2023/03/20 08:51:01;;;;;;;16.77;6.10;;;;;;;7.91;83.22;101886.78;5052416;28;20413;-81
2023/03/20 08:53:27;;;;;;;11.70;5.90;;;;;;;8.14;83.69;101915.75;5051881;28;20078;-85
2023/03/20 08:55:53;;;;;;;18.52;6.13;;;;;;;8.15;83.46;101901.72;5052836;28;20037;-85
2023/03/20 08:58:19;;;;;;;15.18;6.28;;;;;;;8.21;83.26;101910.75;5055883;28;20108;-84
2023/03/20 09:00:45;;;;;;;15.35;5.90;;;;;;;8.09;83.59;101888.31;5055495;28;20037;-84
2023/03/20 09:03:16;;;;;;;14.52;6.32;;;;;;;8.14;83.33;101897.31;5021919;28;20044;-85
2023/03/20 09:05:46;;;;;;;17.35;5.93;;;;;;;8.10;83.23;101876.97;5055705;28;20083;-84
2023/03/20 09:08:12;;;;;;;12.55;5.70;;;;;;;8.25;83.67;101899.47;5055754;28;20068;-85
2023/03/20 09:10:39;;;;;;;12.35;5.95;;;;;;;8.26;82.96;101903.00;5037740;28;20384;-83
2023/03/20 09:13:05;;;;;;;17.55;5.60;;;;;;;8.11;83.40;101870.88;5021328;28;20063;-84
2023/03/20 09:15:31;;;;;;;19.73;5.85;;;;;;;8.34;83.23;101905.94;5055220;28;20036;-82
2023/03/20 09:17:57;;;;;;;14.90;6.43;;;;;;;8.34;83.15;101905.94;5055894;28;20025;-82
2023/03/20 09:20:22;;;;;;;15.43;5.88;;;;;;;8.36;82.72;101914.81;5056078;28;20425;-81
2023/03/20 09:22:48;;;;;;;14.93;5.78;;;;;;;8.24;82.71;101878.38;5021335;28;20028;-82
2023/03/20 09:25:13;;;;;;;13.55;5.85;;;;;;;8.36;83.99;101922.69;5021493;28;20093;-82
2023/03/20 09:27:40;;;;;;;17.05;6.63;;;;;;;8.16;85.07;101904.41;5021067;28;20032;-82
2023/03/20 09:30:06;;;;;;;15.57;6.22;;;;;;;8.27;85.52;101923.25;5036783;28;20469;-82
2023/03/20 09:32:33;;;;;;;14.23;6.35;;;;;;;8.00;86.48;101891.50;5037462;28;20350;-81
2023/03/20 09:35:02;;;;;;;13.85;5.72;;;;;;;8.19;86.88;101922.06;5037600;28;20365;-82
2023/03/20 09:37:28;;;;;;;16.85;5.85;;;;;;;8.02;87.08;101897.75;5037467;28;20108;-82
2023/03/20 09:39:55;;;;;;;13.70;5.40;;;;;;;8.04;87.25;101906.56;5037239;28;20429;-81
2023/03/20 09:42:49;;;;;;;12.38;5.60;;;;;;;8.12;87.11;101926.19;5020655;28;20037;-83
2023/03/20 09:45:39;;;;;;;16.35;6.55;;;;;;;8.05;88.06;101926.81;5054707;28;20472;-81
2023/03/20 09:48:14;;;;;;;16.02;6.47;;;;;;;7.91;89.14;101920.09;5036642;28;20024;-81
2023/03/20 09:51:01;;;;;;;17.35;6.47;;;;;;;7.96;89.89;101929.06;5054937;28;20101;-81
2023/03/20 09:53:33;;;;;;;13.93;6.22;;;;;;;7.93;90.30;101921.09;5054239;28;20029;-83
2023/03/20 09:55:59;;;;;;;13.23;6.07;;;;;;;7.97;89.99;101933.53;5036690;28;20033;-82
2023/03/20 09:58:32;;;;;;;18.00;6.00;;;;;;;7.99;90.25;101927.47;5019806;28;20036;-83
2023/03/20 10:01:00;;;;;;;14.68;6.28;;;;;;;7.84;91.26;101902.31;5054722;28;20032;-83
2023/03/20 10:03:49;;;;;;;15.02;5.78;;;;;;;7.96;91.16;101927.34;5054486;28;20048;-82
2023/03/20 10:06:16;;;;;;;14.38;5.63;;;;;;;7.96;90.79;101916.81;5036739;28;20029;-83
2023/03/20 10:08:43;;;;;;;12.60;5.03;;;;;;;7.75;90.48;101892.28;5035351;28;20053;-83
2023/03/20 10:11:17;;;;;;;20.02;5.50;;;;;;;7.94;90.18;101928.13;5054332;28;20033;-82
2023/03/20 10:13:46;;;;;;;14.27;5.65;;;;;;;7.88;89.90;101919.97;5036078;28;20029;-83
2023/03/20 10:16:18;;;;;;;13.38;5.25;;;;;;;7.86;91.29;101913.78;5054164;28;20079;-82
2023/03/20 10:19:08;;;;;;;18.17;6.40;;;;;;;7.81;92.12;101912.72;5036304;28;20029;-82
2023/03/20 10:21:48;;;;;;;14.82;5.15;;;;;;;7.60;93.15;101858.41;5028637;28;20595;-83
2023/03/20 10:24:26;;;;;;;11.70;5.57;;;;;;;7.84;92.50;101902.31;5036131;28;20024;-82
2023/03/20 10:26:52;;;;;;;14.80;5.47;;;;;;;7.92;92.35;101907.03;5035977;28;20457;-83
2023/03/20 10:29:55;;;;;;;12.70;5.85;;;;;;;7.96;93.39;101902.75;5054196;28;20033;-82
2023/03/20 10:32:32;;;;;;;13.70;5.25;;;;;;;7.95;93.06;101901.84;5036010;28;20033;-83
2023/03/20 10:35:13;;;;;;;12.88;5.50;;;;;;;8.03;93.80;101903.06;5053312;28;20318;-82
2023/03/20 10:37:55;;;;;;;12.38;4.97;;;;;;;7.95;93.82;101885.19;5035994;28;20029;-81
2023/03/20 10:40:29;;;;;;;11.05;5.38;;;;;;;8.08;93.38;101907.59;5053971;28;20068;-82
2023/03/20 10:43:08;;;;;;;16.52;5.38;;;;;;;7.90;92.64;101866.59;5035934;28;20025;-82
2023/03/20 10:45:37;;;;;;;12.52;5.07;;;;;;;7.94;92.48;101875.50;5053422;28;20021;-82
2023/03/20 10:48:11;;;;;;;10.27;5.20;;;;;;;7.98;92.94;101865.13;5053971;28;20028;-82
2023/03/20 10:50:44;;;;;;;13.38;5.57;;;;;;;8.16;92.80;101898.25;5054466;28;20108;-82
2023/03/20 10:53:36;;;;;;;12.85;5.45;;;;;;;8.08;93.13;101882.16;5053438;28;20041;-81
2023/03/20 10:56:07;;;;;;;13.70;5.47;;;;;;;8.08;91.99;101873.38;5053262;28;20491;-82
2023/03/20 10:58:38;;;;;;;15.55;6.13;;;;;;;8.26;93.24;101890.78;5035566;28;20043;-82
2023/03/20 11:01:04;;;;;;;15.02;5.38;;;;;;;8.39;91.85;101893.84;5053761;28;20017;-81
2023/03/20 11:03:33;;;;;;;16.15;6.45;;;;;;;8.32;90.25;101889.19;5018889;28;20031;-81
2023/03/20 11:06:11;;;;;;;14.60;5.53;;;;;;;8.23;90.51;101863.44;5040471;28;20051;-81
2023/03/20 11:08:40;;;;;;;14.23;6.45;;;;;;;8.29;90.56;101874.16;5072597;28;20041;-81
2023/03/20 11:11:06;;;;;;;15.18;6.22;;;;;;;8.50;91.15;101896.03;5072882;28;20475;-80
2023/03/20 11:13:39;;;;;;;21.60;6.20;;;;;;;8.49;89.67;101880.19;5055027;28;20032;-81
2023/03/20 11:16:15;;;;;;;15.38;6.00;;;;;;;8.38;90.21;101864.00;5072873;28;20020;-81
2023/03/20 11:18:41;;;;;;;12.13;5.88;;;;;;;8.57;90.65;101888.38;5054449;28;20020;-80
2023/03/20 11:21:14;;;;;;;15.32;6.05;;;;;;;8.56;89.63;101869.00;5038328;28;20060;-80
2023/03/20 11:23:39;;;;;;;15.32;5.47;;;;;;;8.57;88.83;101873.47;5073041;28;20043;-79
2023/03/20 11:26:06;;;;;;;13.65;4.82;;;;;;;8.57;89.22;101867.31;5072930;28;20048;-81
2023/03/20 11:28:38;;;;;;;17.75;6.32;;;;;;;8.53;88.95;101869.81;5073056;28;20393;-80
2023/03/20 11:31:27;;;;;;;17.60;6.00;;;;;;;8.45;88.25;101846.69;5072944;28;20028;-81
2023/03/20 11:34:12;;;;;;;13.68;5.40;;;;;;;8.46;88.24;101848.47;5059699;28;20689;-81
2023/03/20 11:36:52;;;;;;;20.13;5.57;;;;;;;8.36;89.01;101841.97;5073153;28;20617;-80